createdAt,value
2018-12-08T00:02:57.181Z,96.10
2018-12-08T00:06:00.441Z,95.90
2018-12-08T00:09:04.609Z,96.00
2018-12-08T00:12:07.852Z,96.20
2018-12-08T00:15:11.191Z,96.50
2018-12-08T00:18:14.415Z,96.90
2018-12-08T00:21:17.638Z,97.00
2018-12-08T00:24:20.874Z,97.10
2018-12-08T00:27:24.187Z,97.10
2018-12-08T00:30:45.390Z,97.20
2018-12-08T00:33:48.688Z,96.80
2018-12-08T00:36:51.945Z,96.90
2018-12-08T00:39:55.169Z,96.70
2018-12-08T00:42:58.401Z,96.50
2018-12-08T00:46:01.670Z,96.20
2018-12-08T00:49:04.884Z,96.10
2018-12-08T00:52:08.234Z,96.30
2018-12-08T00:55:11.577Z,95.80
2018-12-08T00:58:14.881Z,95.70
2018-12-08T01:01:18.156Z,95.30
2018-12-08T01:04:21.373Z,95.40
2018-12-08T01:07:24.640Z,95.60
2018-12-08T01:10:27.884Z,94.80
2018-12-08T01:13:31.139Z,94.90
2018-12-08T01:16:34.380Z,94.90
2018-12-08T01:19:37.702Z,94.40
2018-12-08T01:22:40.901Z,94.10
2018-12-08T01:25:44.211Z,93.90
2018-12-08T01:28:47.432Z,94.00
2018-12-08T01:31:50.653Z,94.00
2018-12-08T01:34:54.102Z,94.00
2018-12-08T01:37:57.318Z,94.00
2018-12-08T01:41:00.587Z,93.90
2018-12-08T01:44:03.860Z,93.90
2018-12-08T01:47:07.122Z,94.10
2018-12-08T01:50:10.388Z,93.60
2018-12-08T01:53:13.685Z,93.50
2018-12-08T01:56:16.947Z,93.70
2018-12-08T01:59:20.192Z,93.60
2018-12-08T02:02:23.489Z,93.50
2018-12-08T02:05:26.721Z,93.30
2018-12-08T02:08:29.941Z,93.20
2018-12-08T02:11:33.162Z,92.70
2018-12-08T02:14:36.454Z,93.10
2018-12-08T02:17:39.697Z,93.10
2018-12-08T02:20:42.933Z,93.40
2018-12-08T02:23:46.156Z,93.40
2018-12-08T02:26:49.394Z,93.70
2018-12-08T02:29:52.751Z,93.30
2018-12-08T02:32:55.960Z,93.40
2018-12-08T02:35:59.218Z,93.60
2018-12-08T02:39:02.897Z,93.40
2018-12-08T02:42:06.134Z,93.40
2018-12-08T02:45:09.466Z,93.20
2018-12-08T02:48:12.832Z,93.10
2018-12-08T02:51:16.062Z,93.00
2018-12-08T02:54:19.318Z,93.10
2018-12-08T02:57:22.547Z,93.30
2018-12-08T03:00:25.869Z,93.70
2018-12-08T03:03:29.109Z,93.60
2018-12-08T03:06:32.421Z,93.60
2018-12-08T03:09:35.685Z,93.20
2018-12-08T03:12:38.896Z,93.80
2018-12-08T03:15:42.130Z,94.00
2018-12-08T03:18:45.360Z,94.30
2018-12-08T03:21:48.722Z,94.60
2018-12-08T03:24:52.025Z,94.80
2018-12-08T03:27:55.356Z,95.20
2018-12-08T03:30:58.694Z,95.30
2018-12-08T03:34:02.054Z,95.60
2018-12-08T03:37:05.352Z,95.70
2018-12-08T03:40:08.924Z,95.90
2018-12-08T03:43:12.229Z,96.00
2018-12-08T03:46:15.508Z,95.90
2018-12-08T03:49:18.781Z,95.90
2018-12-08T03:52:22.094Z,95.90
2018-12-08T03:55:25.402Z,96.00
2018-12-08T03:58:28.711Z,96.00
2018-12-08T04:01:31.987Z,96.20
2018-12-08T04:04:35.267Z,96.20
2018-12-08T04:07:38.501Z,96.20
2018-12-08T04:10:41.827Z,96.00
2018-12-08T04:13:45.186Z,96.20
2018-12-08T04:16:48.517Z,96.60
2018-12-08T04:19:51.747Z,96.60
2018-12-08T04:22:54.966Z,97.00
2018-12-08T04:25:58.245Z,97.20
2018-12-08T04:29:01.512Z,97.50
2018-12-08T04:32:04.848Z,97.80
2018-12-08T04:35:08.107Z,97.60
2018-12-08T04:38:11.400Z,97.70
2018-12-08T04:41:14.626Z,97.80
2018-12-08T04:44:17.844Z,97.70
2018-12-08T04:47:21.078Z,97.60
2018-12-08T04:50:24.393Z,97.50
2018-12-08T04:53:27.601Z,97.40
2018-12-08T04:56:30.829Z,97.40
2018-12-08T04:59:34.044Z,97.30
2018-12-08T05:02:37.273Z,97.30
2018-12-08T05:05:40.532Z,97.40
2018-12-08T05:08:43.785Z,97.50
2018-12-08T05:11:47.068Z,97.30
2018-12-08T05:14:50.289Z,97.40
2018-12-08T05:17:53.512Z,97.30
2018-12-08T05:20:56.760Z,97.30
2018-12-08T05:23:59.984Z,97.60
2018-12-08T05:27:03.200Z,97.50
2018-12-08T05:30:06.739Z,97.50
2018-12-08T05:33:09.997Z,97.60
2018-12-08T05:36:13.228Z,97.30
2018-12-08T05:39:16.658Z,97.20
2018-12-08T05:42:19.892Z,97.10
2018-12-08T05:45:23.124Z,97.40
2018-12-08T05:48:26.370Z,96.80
2018-12-08T05:51:29.598Z,96.50
2018-12-08T05:54:32.825Z,96.70
2018-12-08T05:57:36.152Z,96.80
2018-12-08T06:00:39.537Z,96.90
2018-12-08T06:03:42.768Z,97.00
2018-12-08T06:06:46.000Z,96.90
2018-12-08T06:09:49.220Z,96.70
2018-12-08T06:12:52.452Z,96.60
2018-12-08T06:15:55.668Z,96.30
2018-12-08T06:18:58.912Z,96.20
2018-12-08T06:22:02.131Z,96.30
2018-12-08T06:25:08.561Z,96.20
2018-12-08T06:28:14.267Z,96.20
2018-12-08T06:31:17.520Z,96.10
2018-12-08T06:34:20.744Z,96.00
2018-12-08T06:37:24.014Z,95.90
2018-12-08T06:40:29.304Z,95.90
2018-12-08T06:43:32.469Z,96.00
2018-12-08T06:46:35.717Z,95.90
2018-12-08T06:49:38.973Z,95.90
2018-12-08T06:52:42.185Z,95.80
2018-12-08T06:55:45.472Z,95.80
2018-12-08T06:58:48.814Z,95.80
2018-12-08T07:01:52.045Z,95.70
2018-12-08T07:04:55.256Z,95.50
2018-12-08T07:07:58.484Z,95.50
2018-12-08T07:11:01.728Z,95.40
2018-12-08T07:14:05.012Z,95.30
2018-12-08T07:17:08.349Z,95.30
2018-12-08T07:20:11.598Z,95.10
2018-12-08T07:23:14.825Z,95.10
2018-12-08T07:26:18.058Z,95.00
2018-12-08T07:29:25.197Z,95.00
2018-12-08T07:32:28.564Z,95.10
2018-12-08T07:35:31.809Z,95.10
2018-12-08T07:38:35.074Z,95.10
2018-12-08T07:41:38.329Z,95.10
2018-12-08T07:44:41.586Z,95.50
2018-12-08T07:47:44.847Z,95.50
2018-12-08T07:50:48.067Z,95.60
2018-12-08T07:53:51.586Z,95.50
2018-12-08T07:56:54.812Z,95.50
2018-12-08T07:59:58.032Z,95.60
2018-12-08T08:03:01.285Z,95.80
2018-12-08T08:06:04.632Z,95.60
2018-12-08T08:09:07.886Z,95.60
2018-12-08T08:12:11.144Z,95.70
2018-12-08T08:15:14.394Z,95.70
2018-12-08T08:18:17.621Z,95.80
2018-12-08T08:21:20.926Z,95.90
2018-12-08T08:24:24.227Z,95.70
2018-12-08T08:27:27.529Z,95.70
2018-12-08T08:30:30.750Z,95.50
2018-12-08T08:33:33.981Z,95.80
2018-12-08T08:36:37.284Z,95.70
2018-12-08T08:39:40.505Z,95.30
2018-12-08T08:42:43.804Z,95.40
2018-12-08T08:45:47.016Z,95.70
2018-12-08T08:48:50.249Z,95.60
2018-12-08T08:51:53.475Z,95.30
2018-12-08T08:54:56.790Z,95.30
2018-12-08T08:57:59.995Z,95.40
2018-12-08T09:01:03.395Z,95.20
2018-12-08T09:04:06.627Z,95.20
2018-12-08T09:07:09.852Z,94.90
2018-12-08T09:10:13.085Z,95.10
2018-12-08T09:13:16.309Z,94.80
2018-12-08T09:16:19.549Z,94.80
2018-12-08T09:19:22.778Z,94.90
2018-12-08T09:22:26.153Z,94.90
2018-12-08T09:25:29.374Z,94.80
2018-12-08T09:28:32.632Z,94.90
2018-12-08T09:31:35.843Z,94.80
2018-12-08T09:34:39.068Z,94.80
2018-12-08T09:37:42.351Z,94.90
2018-12-08T09:40:45.556Z,94.80
2018-12-08T09:43:48.780Z,94.70
2018-12-08T09:46:51.997Z,94.70
2018-12-08T09:49:55.313Z,94.80
2018-12-08T09:53:12.866Z,94.80
2018-12-08T09:56:16.084Z,95.00
2018-12-08T09:59:19.335Z,95.00
2018-12-08T10:02:22.576Z,95.10
2018-12-08T10:05:25.823Z,95.30
2018-12-08T10:08:29.080Z,95.20
2018-12-08T10:11:32.325Z,95.20
2018-12-08T10:14:35.680Z,95.20
2018-12-08T10:17:38.981Z,95.50
2018-12-08T10:20:42.527Z,95.50
2018-12-08T10:23:45.837Z,95.70
2018-12-08T10:26:49.031Z,95.90
2018-12-08T10:29:52.267Z,95.50
2018-12-08T10:32:55.593Z,95.20
2018-12-08T10:35:58.923Z,95.40
2018-12-08T10:39:02.219Z,95.60
2018-12-08T10:42:05.429Z,95.40
2018-12-08T10:45:08.725Z,96.30
2018-12-08T10:48:11.972Z,96.60
2018-12-08T10:51:15.188Z,96.90
2018-12-08T10:54:18.416Z,97.20
2018-12-08T10:57:21.951Z,97.30
2018-12-08T11:00:30.727Z,96.80
2018-12-08T11:03:52.493Z,96.60
2018-12-08T11:06:55.755Z,96.50
2018-12-08T11:09:58.969Z,95.00
2018-12-08T11:13:02.231Z,93.00
2018-12-08T11:16:05.581Z,93.00
2018-12-08T11:19:08.861Z,93.80
2018-12-08T11:22:12.083Z,94.50
2018-12-08T11:25:15.434Z,95.30
2018-12-08T11:28:18.648Z,95.90
2018-12-08T11:31:21.907Z,96.10
2018-12-08T11:34:25.161Z,96.10
2018-12-08T11:37:28.376Z,96.50
2018-12-08T11:40:31.610Z,96.70
2018-12-08T11:43:34.839Z,96.80
2018-12-08T11:46:39.234Z,96.30
2018-12-08T11:49:43.118Z,96.30
2018-12-08T11:52:46.577Z,96.30
2018-12-08T11:55:49.799Z,96.40
2018-12-08T11:58:53.026Z,96.60
2018-12-08T12:01:56.336Z,97.00
2018-12-08T12:04:59.674Z,96.90
2018-12-08T12:08:03.033Z,96.90
2018-12-08T12:11:06.241Z,97.00
2018-12-08T12:14:09.507Z,96.90
2018-12-08T12:17:12.760Z,97.00
2018-12-08T12:20:15.988Z,97.30
2018-12-08T12:23:19.249Z,97.40
2018-12-08T12:26:22.545Z,97.50
2018-12-08T12:29:25.796Z,97.30
2018-12-08T12:32:29.139Z,97.20
2018-12-08T12:35:32.417Z,97.10
2018-12-08T12:38:35.649Z,97.10
2018-12-08T12:41:38.904Z,96.90
2018-12-08T12:44:42.206Z,97.00
2018-12-08T12:47:45.532Z,96.60
2018-12-08T12:50:48.857Z,96.60
2018-12-08T12:53:52.085Z,96.80
2018-12-08T12:56:55.360Z,96.40
2018-12-08T12:59:58.749Z,96.30
2018-12-08T13:03:02.052Z,96.20
2018-12-08T13:06:05.286Z,96.00
2018-12-08T13:09:08.570Z,96.20
2018-12-08T13:12:12.193Z,95.70
2018-12-08T13:15:15.562Z,95.80
2018-12-08T13:18:18.780Z,96.10
2018-12-08T13:21:22.057Z,96.20
2018-12-08T13:24:30.361Z,96.40
2018-12-08T13:27:33.610Z,97.10
2018-12-08T13:30:36.860Z,97.00
2018-12-08T13:33:40.089Z,97.30
2018-12-08T13:36:43.352Z,98.00
2018-12-08T13:39:46.559Z,98.10
2018-12-08T13:42:49.804Z,98.40
2018-12-08T13:45:53.067Z,98.10
2018-12-08T13:48:56.299Z,98.00
2018-12-08T13:51:59.640Z,98.10
2018-12-08T13:55:02.930Z,98.50
2018-12-08T13:58:06.160Z,98.40
2018-12-08T14:01:09.426Z,98.60
2018-12-08T14:04:12.640Z,98.60
2018-12-08T14:07:15.913Z,98.80
2018-12-08T14:10:19.128Z,99.30
2018-12-08T14:13:22.466Z,99.30
2018-12-08T14:16:25.697Z,99.20
2018-12-08T14:19:28.973Z,99.10
2018-12-08T14:22:32.201Z,99.20
2018-12-08T14:25:35.461Z,99.20
2018-12-08T14:28:39.136Z,98.90
2018-12-08T14:31:43.053Z,98.90
2018-12-08T14:34:46.280Z,99.00
2018-12-08T14:37:49.572Z,98.70
2018-12-08T14:40:52.800Z,98.90
2018-12-08T14:43:56.061Z,98.60
2018-12-08T14:46:59.303Z,98.70
2018-12-08T14:50:02.690Z,98.80
2018-12-08T14:53:06.092Z,98.60
2018-12-08T14:56:09.349Z,98.60
2018-12-08T14:59:12.578Z,98.30
2018-12-08T15:02:15.803Z,98.40
2018-12-08T15:05:19.055Z,98.70
2018-12-08T15:08:22.286Z,98.50
2018-12-08T15:11:25.562Z,98.60
2018-12-08T15:14:30.400Z,98.70
2018-12-08T15:17:33.950Z,98.70
2018-12-08T15:20:37.432Z,98.70
2018-12-08T15:23:40.902Z,98.90
2018-12-08T15:26:44.141Z,98.70
2018-12-08T15:29:47.394Z,98.50
2018-12-08T15:32:50.602Z,98.30
2018-12-08T15:35:54.708Z,98.10
2018-12-08T15:38:57.952Z,98.00
2018-12-08T15:42:01.185Z,98.10
2018-12-08T15:45:08.003Z,98.00
2018-12-08T15:48:11.277Z,98.00
2018-12-08T15:51:14.506Z,98.00
2018-12-08T15:54:17.749Z,98.00
2018-12-08T15:57:20.983Z,98.10
2018-12-08T16:00:24.260Z,98.00
2018-12-08T16:03:27.461Z,97.80
2018-12-08T16:06:30.685Z,97.80
2018-12-08T16:09:33.939Z,97.80
2018-12-08T16:12:37.181Z,97.80
2018-12-08T16:15:40.447Z,97.70
2018-12-08T16:18:43.666Z,97.70
2018-12-08T16:21:46.933Z,97.90
2018-12-08T16:24:50.212Z,98.00
2018-12-08T16:27:53.513Z,97.90
2018-12-08T16:30:56.821Z,98.10
2018-12-08T16:34:00.112Z,98.30
2018-12-08T16:37:03.396Z,98.30
2018-12-08T16:40:06.676Z,98.30
2018-12-08T16:43:10.013Z,98.40
2018-12-08T16:46:13.213Z,98.20
2018-12-08T16:49:16.487Z,98.10
2018-12-08T16:52:19.737Z,97.80
2018-12-08T16:55:22.981Z,97.70
2018-12-08T16:58:26.230Z,97.60
2018-12-08T17:01:29.503Z,97.50
2018-12-08T17:04:32.766Z,97.50
2018-12-08T17:07:36.048Z,97.50
2018-12-08T17:10:39.302Z,97.40
2018-12-08T17:13:42.563Z,97.40
2018-12-08T17:16:45.807Z,97.30
2018-12-08T17:19:49.028Z,97.30
2018-12-08T17:22:52.268Z,97.20
2018-12-08T17:25:55.516Z,97.10
2018-12-08T17:28:58.736Z,97.30
2018-12-08T17:32:02.046Z,97.40
2018-12-08T17:35:05.312Z,97.50
2018-12-08T17:38:08.580Z,97.30
2018-12-08T17:41:11.823Z,97.40
2018-12-08T17:44:15.048Z,97.40
2018-12-08T17:47:18.372Z,97.40
2018-12-08T17:50:21.599Z,97.40
2018-12-08T17:53:24.841Z,97.50
2018-12-08T17:56:28.124Z,97.60
2018-12-08T17:59:31.348Z,97.70
2018-12-08T18:02:34.614Z,97.70
2018-12-08T18:05:39.952Z,97.50
2018-12-08T18:08:43.176Z,97.50
2018-12-08T18:11:46.546Z,97.90
2018-12-08T18:14:49.772Z,97.50
2018-12-08T18:17:53.072Z,97.60
2018-12-08T18:20:56.320Z,97.80
2018-12-08T18:23:59.633Z,97.50
2018-12-08T18:27:03.030Z,97.70
2018-12-08T18:30:07.293Z,97.70
2018-12-08T18:33:10.546Z,97.80
2018-12-08T18:36:13.758Z,97.90
2018-12-08T18:39:17.018Z,97.90
2018-12-08T18:42:20.224Z,98.00
2018-12-08T18:45:23.475Z,98.00
2018-12-08T18:48:26.677Z,98.10
2018-12-08T18:51:29.907Z,98.10
2018-12-08T18:54:33.158Z,98.00
2018-12-08T18:57:36.405Z,98.10
2018-12-08T19:00:39.685Z,98.00
2018-12-08T19:03:43.007Z,98.00
2018-12-08T19:06:46.213Z,98.00
2018-12-08T19:09:49.601Z,98.10
2018-12-08T19:12:52.844Z,97.90
2018-12-08T19:15:56.145Z,98.10
2018-12-08T19:18:59.371Z,98.00
2018-12-08T19:22:02.812Z,98.00
2018-12-08T19:25:06.732Z,97.90
2018-12-08T19:28:09.998Z,98.00
2018-12-08T19:31:13.207Z,97.90
2018-12-08T19:34:16.419Z,98.00
2018-12-08T19:37:19.672Z,97.80
2018-12-08T19:40:22.900Z,97.60
2018-12-08T19:43:27.001Z,97.60
2018-12-08T19:46:30.337Z,97.80
2018-12-08T19:49:33.588Z,97.70
2018-12-08T19:52:36.828Z,97.90
2018-12-08T19:55:40.080Z,98.00
2018-12-08T19:58:43.309Z,98.00
2018-12-08T20:01:46.572Z,98.20
2018-12-08T20:04:49.788Z,98.30
2018-12-08T20:07:53.067Z,98.40
2018-12-08T20:10:56.277Z,98.60
2018-12-08T20:13:59.559Z,98.90
2018-12-08T20:17:02.766Z,99.40
2018-12-08T20:20:06.060Z,99.90
2018-12-08T20:23:09.317Z,99.90
2018-12-08T20:26:12.648Z,99.90
2018-12-08T20:29:16.001Z,99.90
2018-12-08T20:32:19.332Z,99.90
2018-12-08T20:35:22.637Z,99.90
2018-12-08T20:38:25.857Z,99.90
2018-12-08T20:41:29.127Z,99.90
2018-12-08T20:44:32.338Z,99.90
2018-12-08T20:47:35.590Z,99.90
2018-12-08T20:50:38.795Z,99.90
2018-12-08T20:53:42.097Z,99.90
2018-12-08T20:56:45.310Z,99.90
2018-12-08T20:59:48.603Z,99.90
2018-12-08T21:02:51.837Z,99.90
2018-12-08T21:05:55.095Z,99.90
2018-12-08T21:08:58.320Z,99.90
2018-12-08T21:12:01.586Z,99.90
2018-12-08T21:15:05.468Z,99.90
2018-12-08T21:18:08.744Z,99.90
2018-12-08T21:21:12.397Z,99.90
2018-12-08T21:24:15.677Z,99.90
2018-12-08T21:27:18.881Z,99.90
2018-12-08T21:30:22.189Z,99.90
2018-12-08T21:33:25.416Z,99.90
2018-12-08T21:36:28.660Z,99.90
2018-12-08T21:39:31.901Z,99.90
2018-12-08T21:42:35.176Z,99.90
2018-12-08T21:45:38.419Z,99.90
2018-12-08T21:48:41.740Z,99.90
2018-12-08T21:51:45.782Z,99.90
2018-12-08T21:54:49.078Z,99.90
2018-12-08T21:57:52.282Z,99.90
2018-12-08T22:00:55.560Z,99.90
2018-12-08T22:03:58.820Z,99.90
2018-12-08T22:07:02.076Z,99.90
2018-12-08T22:10:05.869Z,99.90
2018-12-08T22:13:09.124Z,99.90
2018-12-08T22:16:12.375Z,99.90
2018-12-08T22:19:15.661Z,99.90
2018-12-08T22:22:18.885Z,99.90
2018-12-08T22:25:22.151Z,99.90
2018-12-08T22:28:25.369Z,99.90
2018-12-08T22:31:28.590Z,99.90
2018-12-08T22:34:31.904Z,99.90
2018-12-08T22:37:35.233Z,99.90
2018-12-08T22:40:38.479Z,99.90
2018-12-08T22:43:41.791Z,99.90
2018-12-08T22:46:45.128Z,99.90
2018-12-08T22:49:48.360Z,99.90
2018-12-08T22:52:51.723Z,99.90
2018-12-08T22:55:54.980Z,99.90
2018-12-08T22:58:58.206Z,99.90
2018-12-08T23:02:01.465Z,99.90
2018-12-08T23:05:05.335Z,99.90
2018-12-08T23:08:08.614Z,99.90
2018-12-08T23:11:11.949Z,99.90
2018-12-08T23:14:15.316Z,99.60
2018-12-08T23:17:18.642Z,99.90
2018-12-08T23:20:21.884Z,99.70
2018-12-08T23:23:25.209Z,99.60
2018-12-08T23:26:28.594Z,99.90
2018-12-08T23:29:31.955Z,99.90
2018-12-08T23:32:35.230Z,99.90
2018-12-08T23:35:38.444Z,99.90
2018-12-08T23:38:41.731Z,99.90
2018-12-08T23:41:44.989Z,99.90
2018-12-08T23:44:48.261Z,99.90
2018-12-08T23:47:51.481Z,99.90
2018-12-08T23:50:54.776Z,99.90
2018-12-08T23:53:58.072Z,99.90
2018-12-08T23:57:01.330Z,99.90
